createdAt,value
2022-12-18T00:01:34.233Z,-2.30
2022-12-18T00:04:03.137Z,-2.44
2022-12-18T00:06:30.724Z,-2.10
2022-12-18T00:08:59.321Z,-2.11
2022-12-18T00:11:29.385Z,-2.13
2022-12-18T00:14:00.274Z,-2.12
2022-12-18T00:16:29.006Z,-2.14
2022-12-18T00:18:59.212Z,-2.14
2022-12-18T00:21:26.678Z,-2.16
2022-12-18T00:23:53.889Z,-2.19
2022-12-18T00:26:29.886Z,-2.26
2022-12-18T00:29:00.992Z,-2.19
2022-12-18T00:31:28.269Z,-2.19
2022-12-18T00:33:56.918Z,-2.20
2022-12-18T00:36:26.458Z,-2.24
2022-12-18T00:38:55.356Z,-2.40
2022-12-18T00:41:41.255Z,-2.29
2022-12-18T00:44:10.522Z,-2.34
2022-12-18T00:46:37.241Z,-2.42
2022-12-18T00:49:04.943Z,-2.58
2022-12-18T00:51:31.767Z,-2.78
2022-12-18T00:53:58.509Z,-2.43
2022-12-18T00:56:25.677Z,-2.64
2022-12-18T00:58:52.892Z,-2.46
2022-12-18T01:01:20.093Z,-2.53
2022-12-18T01:03:47.673Z,-2.64
2022-12-18T01:06:15.739Z,-2.52
2022-12-18T01:08:42.737Z,-2.52
2022-12-18T01:11:12.832Z,-2.74
2022-12-18T01:13:40.435Z,-2.53
2022-12-18T01:16:08.250Z,-2.55
2022-12-18T01:18:35.438Z,-2.64
2022-12-18T01:21:07.074Z,-2.82
2022-12-18T01:23:33.704Z,-2.82
2022-12-18T01:26:06.162Z,-2.66
2022-12-18T01:28:33.226Z,-2.65
2022-12-18T01:31:16.082Z,-2.86
2022-12-18T01:33:43.601Z,-2.89
2022-12-18T01:36:22.753Z,-2.83
2022-12-18T01:38:50.629Z,-3.16
2022-12-18T01:41:19.201Z,-2.98
2022-12-18T01:43:55.408Z,-3.26
2022-12-18T01:46:26.978Z,-3.17
2022-12-18T01:48:59.171Z,-3.18
2022-12-18T01:51:28.226Z,-3.23
2022-12-18T01:53:55.039Z,-3.18
2022-12-18T01:56:22.540Z,-3.70
2022-12-18T01:59:01.137Z,-3.47
2022-12-18T02:01:30.209Z,-3.56
2022-12-18T02:03:57.306Z,-3.36
2022-12-18T02:06:40.460Z,-3.41
2022-12-18T02:09:14.873Z,-3.62
2022-12-18T02:11:54.095Z,-3.49
2022-12-18T02:14:46.366Z,-3.55
2022-12-18T02:17:37.001Z,-3.55
2022-12-18T02:20:37.967Z,-3.48
2022-12-18T02:23:33.641Z,-3.64
2022-12-18T02:26:10.980Z,-3.52
2022-12-18T02:28:43.778Z,-3.51
2022-12-18T02:31:15.384Z,-3.51
2022-12-18T02:33:45.346Z,-3.57
2022-12-18T02:36:15.500Z,-3.68
2022-12-18T02:38:44.255Z,-3.81
2022-12-18T02:41:11.520Z,-3.73
2022-12-18T02:43:38.612Z,-3.78
2022-12-18T02:46:50.547Z,-3.70
2022-12-18T02:49:38.292Z,-4.19
2022-12-18T02:52:30.904Z,-3.69
2022-12-18T02:55:18.832Z,-3.70
2022-12-18T02:57:57.359Z,-3.72
2022-12-18T03:00:48.633Z,-3.78
2022-12-18T03:03:21.036Z,-3.79
2022-12-18T03:06:06.288Z,-3.79
2022-12-18T03:08:39.683Z,-3.80
2022-12-18T03:11:10.684Z,-3.88
2022-12-18T03:13:57.398Z,-3.81
2022-12-18T03:16:28.165Z,-3.85
2022-12-18T03:19:02.155Z,-3.88
2022-12-18T03:21:48.489Z,-4.00
2022-12-18T03:24:18.148Z,-3.99
2022-12-18T03:26:48.139Z,-3.95
2022-12-18T03:29:28.496Z,-4.14
2022-12-18T03:31:57.712Z,-4.01
2022-12-18T03:34:37.152Z,-4.14
2022-12-18T03:37:04.823Z,-4.13
2022-12-18T03:39:31.942Z,-4.32
2022-12-18T03:42:06.823Z,-4.03
2022-12-18T03:44:45.311Z,-4.09
2022-12-18T03:47:48.097Z,-4.18
2022-12-18T03:50:36.973Z,-4.11
2022-12-18T03:53:06.341Z,-4.13
2022-12-18T03:55:35.608Z,-4.19
2022-12-18T03:58:04.807Z,-4.16
2022-12-18T04:00:32.734Z,-4.22
2022-12-18T04:03:02.365Z,-4.30
2022-12-18T04:05:31.159Z,-4.33
2022-12-18T04:07:58.791Z,-4.29
2022-12-18T04:10:25.448Z,-4.44
2022-12-18T04:12:56.311Z,-4.41
2022-12-18T04:15:23.036Z,-4.61
2022-12-18T04:17:50.985Z,-4.97
2022-12-18T04:20:18.549Z,-4.44
2022-12-18T04:22:45.236Z,-4.42
2022-12-18T04:25:13.641Z,-4.42
2022-12-18T04:27:40.468Z,-4.47
2022-12-18T04:30:08.159Z,-4.44
2022-12-18T04:32:35.766Z,-4.53
2022-12-18T04:35:03.024Z,-4.44
2022-12-18T04:37:29.751Z,-4.60
2022-12-18T04:39:56.489Z,-4.47
2022-12-18T04:42:23.193Z,-4.71
2022-12-18T04:44:49.986Z,-4.47
2022-12-18T04:47:16.696Z,-4.55
2022-12-18T04:49:43.397Z,-4.62
2022-12-18T04:52:10.158Z,-4.71
2022-12-18T04:54:36.808Z,-4.57
2022-12-18T04:57:03.417Z,-5.11
2022-12-18T04:59:30.296Z,-5.01
2022-12-18T05:01:57.159Z,-4.60
2022-12-18T05:04:23.897Z,-4.67
2022-12-18T05:06:50.607Z,-4.79
2022-12-18T05:09:17.378Z,-4.57
2022-12-18T05:11:46.320Z,-4.70
2022-12-18T05:14:13.284Z,-4.64
2022-12-18T05:16:39.937Z,-4.80
2022-12-18T05:19:06.904Z,-4.71
2022-12-18T05:21:33.892Z,-4.60
2022-12-18T05:24:00.747Z,-4.76
2022-12-18T05:26:27.398Z,-4.81
2022-12-18T05:28:54.114Z,-4.73
2022-12-18T05:31:20.920Z,-4.79
2022-12-18T05:33:47.646Z,-4.76
2022-12-18T05:36:14.436Z,-4.82
2022-12-18T05:38:41.892Z,-4.78
2022-12-18T05:41:09.614Z,-4.97
2022-12-18T05:43:38.826Z,-4.94
2022-12-18T05:46:17.133Z,-4.85
2022-12-18T05:48:44.452Z,-4.98
2022-12-18T05:51:14.047Z,-4.90
2022-12-18T05:53:40.930Z,-4.87
2022-12-18T05:56:12.639Z,-5.13
2022-12-18T05:58:39.678Z,-4.83
2022-12-18T06:01:16.818Z,-4.85
2022-12-18T06:03:44.254Z,-4.87
2022-12-18T06:06:29.931Z,-5.09
2022-12-18T06:08:57.599Z,-4.92
2022-12-18T06:11:27.185Z,-5.16
2022-12-18T06:13:58.549Z,-4.97
2022-12-18T06:16:30.292Z,-4.97
2022-12-18T06:18:59.842Z,-4.97
2022-12-18T06:21:27.042Z,-5.46
2022-12-18T06:23:53.678Z,-4.99
2022-12-18T06:26:26.165Z,-5.10
2022-12-18T06:28:54.810Z,-4.95
2022-12-18T06:31:21.739Z,-5.00
2022-12-18T06:33:48.402Z,-5.05
2022-12-18T06:36:15.392Z,-5.40
2022-12-18T06:38:44.119Z,-5.10
2022-12-18T06:41:16.291Z,-5.03
2022-12-18T06:43:43.655Z,-5.11
2022-12-18T06:46:10.993Z,-4.78
2022-12-18T06:48:37.792Z,-4.69
2022-12-18T06:51:05.022Z,-4.56
2022-12-18T06:53:33.836Z,-4.79
2022-12-18T06:56:09.874Z,-4.58
2022-12-18T06:58:38.455Z,-4.64
2022-12-18T07:01:07.287Z,-4.68
2022-12-18T07:03:34.208Z,-4.95
2022-12-18T07:06:01.095Z,-5.07
2022-12-18T07:08:27.986Z,-5.46
2022-12-18T07:10:56.394Z,-5.11
2022-12-18T07:13:24.110Z,-5.05
2022-12-18T07:15:51.084Z,-5.11
2022-12-18T07:18:17.786Z,-5.16
2022-12-18T07:20:45.384Z,-5.32
2022-12-18T07:23:12.851Z,-5.20
2022-12-18T07:25:40.655Z,-5.11
2022-12-18T07:28:09.600Z,-5.06
2022-12-18T07:30:39.398Z,-5.64
2022-12-18T07:33:06.068Z,-5.25
2022-12-18T07:35:34.333Z,-5.31
2022-12-18T07:38:01.173Z,-5.11
2022-12-18T07:40:27.917Z,-5.23
2022-12-18T07:42:54.863Z,-5.40
2022-12-18T07:45:21.493Z,-5.43
2022-12-18T07:47:48.125Z,-5.21
2022-12-18T07:50:15.008Z,-5.27
2022-12-18T07:52:41.812Z,-5.30
2022-12-18T07:55:08.986Z,-5.32
2022-12-18T07:57:50.452Z,-5.21
2022-12-18T08:00:18.891Z,-5.09
2022-12-18T08:02:45.824Z,-5.11
2022-12-18T08:05:12.785Z,-5.14
2022-12-18T08:07:39.416Z,-5.10
2022-12-18T08:10:07.565Z,-5.14
2022-12-18T08:12:34.397Z,-5.12
2022-12-18T08:15:02.353Z,-5.15
2022-12-18T08:17:29.663Z,-5.24
2022-12-18T08:19:56.335Z,-5.15
2022-12-18T08:22:23.185Z,-5.19
2022-12-18T08:24:49.983Z,-5.59
2022-12-18T08:27:32.229Z,-5.49
2022-12-18T08:29:59.534Z,-5.44
2022-12-18T08:32:28.442Z,-5.01
2022-12-18T08:34:55.333Z,-5.11
2022-12-18T08:37:22.267Z,-5.00
2022-12-18T08:39:48.899Z,-5.02
2022-12-18T08:42:34.078Z,-5.10
2022-12-18T08:45:00.811Z,-5.67
2022-12-18T08:47:27.441Z,-4.86
2022-12-18T08:49:54.287Z,-4.80
2022-12-18T08:52:21.180Z,-4.72
2022-12-18T08:54:47.849Z,-4.73
2022-12-18T08:57:14.851Z,-4.69
2022-12-18T08:59:41.537Z,-4.83
2022-12-18T09:02:11.566Z,-4.51
2022-12-18T09:04:38.543Z,-4.64
2022-12-18T09:07:05.408Z,-4.58
2022-12-18T09:09:32.190Z,-4.40
2022-12-18T09:11:58.903Z,-4.35
2022-12-18T09:14:25.703Z,-4.77
2022-12-18T09:16:52.402Z,-4.25
2022-12-18T09:19:19.257Z,-4.35
2022-12-18T09:21:48.239Z,-4.35
2022-12-18T09:24:16.235Z,-4.19
2022-12-18T09:26:43.754Z,-4.12
2022-12-18T09:29:15.613Z,-3.76
2022-12-18T09:31:43.087Z,-3.69
2022-12-18T09:34:09.918Z,-3.60
2022-12-18T09:36:36.710Z,-3.48
2022-12-18T09:39:08.222Z,-3.37
2022-12-18T09:41:55.726Z,-3.30
2022-12-18T09:44:44.438Z,-3.18
2022-12-18T09:47:24.595Z,-3.14
2022-12-18T09:49:56.154Z,-3.17
2022-12-18T09:52:29.687Z,-3.06
2022-12-18T09:55:03.156Z,-2.96
2022-12-18T09:57:34.398Z,-2.99
2022-12-18T10:00:10.900Z,-2.82
2022-12-18T10:02:37.858Z,-2.86
2022-12-18T10:05:06.895Z,-2.79
2022-12-18T10:07:44.210Z,-2.77
2022-12-18T10:10:25.719Z,-2.73
2022-12-18T10:13:32.935Z,-2.84
2022-12-18T10:16:11.084Z,-2.84
2022-12-18T10:18:51.887Z,-2.69
2022-12-18T10:21:57.231Z,-2.68
2022-12-18T10:24:38.932Z,-2.68
2022-12-18T10:27:26.786Z,-2.62
2022-12-18T10:29:55.098Z,-2.62
2022-12-18T10:32:27.435Z,-2.54
2022-12-18T10:35:00.652Z,-2.54
2022-12-18T10:37:30.477Z,-2.54
2022-12-18T10:40:22.373Z,-2.59
2022-12-18T10:43:12.455Z,-2.62
2022-12-18T10:45:39.259Z,-2.64
2022-12-18T10:48:18.297Z,-2.62
2022-12-18T10:53:42.902Z,-2.66
2022-12-18T10:56:10.232Z,-2.82
2022-12-18T10:58:39.998Z,-2.60
2022-12-18T11:01:07.365Z,-2.56
2022-12-18T11:04:02.411Z,-2.54
2022-12-18T11:06:30.338Z,-2.51
2022-12-18T11:09:36.402Z,-2.42
2022-12-18T11:12:25.227Z,-2.46
2022-12-18T11:14:54.443Z,-2.35
2022-12-18T11:17:32.329Z,-2.29
2022-12-18T11:20:01.714Z,-2.19
2022-12-18T11:22:34.626Z,-2.18
2022-12-18T11:25:33.101Z,-2.15
2022-12-18T11:27:59.021Z,-2.16
2022-12-18T11:30:33.069Z,-2.06
2022-12-18T11:33:23.139Z,-2.13
2022-12-18T11:35:54.870Z,-2.19
2022-12-18T11:38:30.049Z,-2.07
2022-12-18T11:41:47.783Z,-1.99
2022-12-18T11:44:47.255Z,-1.95
2022-12-18T11:47:29.390Z,-1.93
2022-12-18T11:50:00.581Z,-1.91
2022-12-18T11:52:39.345Z,-1.88
2022-12-18T11:55:28.665Z,-1.83
2022-12-18T11:58:13.110Z,-1.98
2022-12-18T12:00:54.103Z,-1.86
2022-12-18T12:03:52.726Z,-1.73
2022-12-18T12:06:47.654Z,-1.68
2022-12-18T12:09:49.547Z,-1.67
2022-12-18T12:12:23.165Z,-1.63
2022-12-18T12:14:53.786Z,-1.59
2022-12-18T12:17:23.198Z,-1.52
2022-12-18T12:20:03.659Z,-1.89
2022-12-18T12:22:36.179Z,-1.48
2022-12-18T12:25:34.206Z,-1.57
2022-12-18T12:28:24.092Z,-1.41
2022-12-18T12:31:29.347Z,-1.40
2022-12-18T12:34:13.326Z,-1.39
2022-12-18T12:37:02.777Z,-1.32
2022-12-18T12:39:37.617Z,-1.54
2022-12-18T12:42:35.158Z,-1.36
2022-12-18T12:45:05.775Z,-1.17
2022-12-18T12:47:38.154Z,-1.26
2022-12-18T12:50:13.236Z,-1.18
2022-12-18T12:52:56.225Z,-1.15
2022-12-18T12:55:29.061Z,-1.09
2022-12-18T12:58:18.055Z,-0.98
2022-12-18T13:01:05.818Z,-1.09
2022-12-18T13:03:41.446Z,-1.35
2022-12-18T13:06:29.070Z,-0.85
2022-12-18T13:09:01.699Z,-0.81
2022-12-18T13:11:52.562Z,-0.79
2022-12-18T13:14:27.384Z,-0.82
2022-12-18T13:17:20.029Z,-0.73
2022-12-18T13:19:52.445Z,-0.74
2022-12-18T13:22:43.315Z,-0.59
2022-12-18T13:25:39.148Z,-0.66
2022-12-18T13:28:11.193Z,-0.60
2022-12-18T13:30:50.217Z,-0.57
2022-12-18T13:33:18.345Z,-0.51
2022-12-18T13:35:48.019Z,-0.45
2022-12-18T13:38:34.095Z,-0.61
2022-12-18T13:41:20.190Z,-0.64
2022-12-18T13:43:48.131Z,-0.51
2022-12-18T13:46:29.082Z,-0.43
2022-12-18T13:48:58.780Z,-0.50
2022-12-18T13:51:27.372Z,-0.45
2022-12-18T13:53:58.368Z,-0.46
2022-12-18T13:56:31.409Z,-0.50
2022-12-18T13:59:06.760Z,-0.43
2022-12-18T14:01:33.918Z,-0.48
2022-12-18T14:04:12.288Z,-0.45
2022-12-18T14:06:39.675Z,-0.57
2022-12-18T14:09:06.658Z,-0.35
2022-12-18T14:11:36.294Z,-0.38
2022-12-18T14:14:08.543Z,-0.41
2022-12-18T14:16:35.643Z,-0.38
2022-12-18T14:19:11.800Z,-0.43
2022-12-18T14:21:48.393Z,-0.67
2022-12-18T14:24:20.597Z,-0.27
2022-12-18T14:26:50.592Z,-0.36
2022-12-18T14:29:23.395Z,-0.36
2022-12-18T14:32:25.752Z,-0.88
2022-12-18T14:34:56.846Z,-0.43
2022-12-18T14:37:27.136Z,-0.45
2022-12-18T14:40:10.452Z,-0.55
2022-12-18T14:42:38.701Z,-0.59
2022-12-18T14:45:44.456Z,-0.51
2022-12-18T14:48:23.220Z,-0.54
2022-12-18T14:51:06.229Z,-0.61
2022-12-18T14:53:40.558Z,-0.57
2022-12-18T14:56:15.623Z,-0.65
2022-12-18T14:58:47.453Z,-0.64
2022-12-18T15:01:26.712Z,-0.63
2022-12-18T15:03:56.004Z,-0.70
2022-12-18T15:06:29.939Z,-0.70
2022-12-18T15:08:57.975Z,-0.58
2022-12-18T15:11:46.484Z,-0.84
2022-12-18T15:14:31.143Z,-0.62
2022-12-18T15:17:00.125Z,-0.56
2022-12-18T15:19:46.744Z,-0.67
2022-12-18T15:22:35.486Z,-0.46
2022-12-18T15:25:03.527Z,-0.46
2022-12-18T15:27:36.860Z,-0.54
2022-12-18T15:30:19.363Z,-0.83
2022-12-18T15:32:46.902Z,-0.74
2022-12-18T15:35:23.353Z,-0.73
2022-12-18T15:37:51.997Z,-0.77
2022-12-18T15:40:27.709Z,-1.50
2022-12-18T15:43:14.929Z,-0.83
2022-12-18T15:45:41.808Z,-1.04
2022-12-18T15:48:24.059Z,-0.93
2022-12-18T15:50:58.085Z,-1.04
2022-12-18T15:53:28.094Z,-1.05
2022-12-18T15:56:13.854Z,-0.90
2022-12-18T15:58:41.278Z,-1.13
2022-12-18T16:01:10.553Z,-1.11
2022-12-18T16:03:38.141Z,-0.91
2022-12-18T16:06:05.273Z,-0.84
2022-12-18T16:08:32.464Z,-0.86
2022-12-18T16:10:59.511Z,-0.83
2022-12-18T16:13:26.172Z,-1.07
2022-12-18T16:15:53.002Z,-1.06
2022-12-18T16:18:20.429Z,-0.92
2022-12-18T16:20:47.296Z,-1.00
2022-12-18T16:23:14.060Z,-0.96
2022-12-18T16:25:40.813Z,-0.99
2022-12-18T16:28:07.475Z,-1.12
2022-12-18T16:30:38.303Z,-0.90
2022-12-18T16:33:05.841Z,-0.82
2022-12-18T16:35:34.831Z,-0.96
2022-12-18T16:38:02.105Z,-0.96
2022-12-18T16:40:28.826Z,-0.94
2022-12-18T16:42:55.513Z,-0.82
2022-12-18T16:45:22.329Z,-0.91
2022-12-18T16:47:49.272Z,-1.29
2022-12-18T16:50:16.107Z,-0.82
2022-12-18T16:52:42.851Z,-1.03
2022-12-18T16:55:10.235Z,-0.73
2022-12-18T16:57:36.872Z,-0.67
2022-12-18T17:00:10.431Z,-0.61
2022-12-18T17:02:37.357Z,-0.59
2022-12-18T17:05:04.628Z,-0.52
2022-12-18T17:07:31.423Z,-0.58
2022-12-18T17:09:58.241Z,-0.69
2022-12-18T17:12:26.792Z,-0.86
2022-12-18T17:14:53.494Z,-0.55
2022-12-18T17:17:22.648Z,-0.94
2022-12-18T17:19:50.462Z,-0.38
2022-12-18T17:22:17.263Z,-0.49
2022-12-18T17:24:44.123Z,-0.94
2022-12-18T17:27:11.012Z,-0.83
2022-12-18T17:29:41.131Z,-0.48
2022-12-18T17:32:12.047Z,-0.46
2022-12-18T17:34:38.833Z,-0.43
2022-12-18T17:37:05.522Z,-0.25
2022-12-18T17:39:33.472Z,-0.26
2022-12-18T17:42:01.433Z,-0.10
2022-12-18T17:44:28.356Z,-0.19
2022-12-18T17:46:55.308Z,-0.19
2022-12-18T17:49:22.308Z,-0.11
2022-12-18T17:51:49.052Z,-0.09
2022-12-18T17:54:16.016Z,-0.15
2022-12-18T17:56:42.997Z,-0.06
2022-12-18T17:59:09.770Z,-0.17
2022-12-18T18:01:42.595Z,-0.32
2022-12-18T18:04:11.834Z,-0.31
2022-12-18T18:06:39.467Z,-0.19
2022-12-18T18:09:11.166Z,-0.24
2022-12-18T18:12:01.501Z,-0.41
2022-12-18T18:14:28.361Z,-0.21
2022-12-18T18:16:55.049Z,-0.27
2022-12-18T18:19:25.368Z,-0.09
2022-12-18T18:21:54.028Z,-0.10
2022-12-18T18:24:23.723Z,-0.08
2022-12-18T18:26:50.654Z,-0.11
2022-12-18T18:29:22.757Z,0.02
2022-12-18T18:31:49.983Z,0.03
2022-12-18T18:34:20.255Z,0.03
2022-12-18T18:36:47.167Z,0.08
2022-12-18T18:39:14.904Z,0.13
2022-12-18T18:41:42.194Z,0.18
2022-12-18T18:44:14.503Z,0.20
2022-12-18T18:46:41.246Z,0.05
2022-12-18T18:49:08.138Z,0.17
2022-12-18T18:51:35.593Z,0.05
2022-12-18T18:54:02.783Z,0.19
2022-12-18T18:59:17.541Z,0.04
2022-12-18T19:01:44.678Z,0.25
2022-12-18T19:04:11.431Z,0.29
2022-12-18T19:06:38.189Z,0.31
2022-12-18T19:09:07.162Z,0.39
2022-12-18T19:11:52.408Z,0.43
2022-12-18T19:14:19.404Z,0.53
2022-12-18T19:16:46.230Z,0.47
2022-12-18T19:19:13.455Z,0.61
2022-12-18T19:21:40.602Z,0.11
2022-12-18T19:24:07.717Z,0.47
2022-12-18T19:26:36.142Z,0.67
2022-12-18T19:29:08.347Z,0.74
2022-12-18T19:31:36.960Z,0.69
2022-12-18T19:34:06.795Z,0.76
2022-12-18T19:36:35.499Z,0.85
2022-12-18T19:39:11.785Z,0.89
2022-12-18T19:41:39.838Z,0.91
2022-12-18T19:44:08.274Z,0.73
2022-12-18T19:46:35.765Z,0.87
2022-12-18T19:49:02.768Z,0.91
2022-12-18T19:51:31.568Z,0.76
2022-12-18T19:54:01.678Z,1.04
2022-12-18T19:56:34.164Z,0.99
2022-12-18T19:59:02.372Z,1.12
2022-12-18T20:01:30.189Z,1.15
2022-12-18T20:03:58.881Z,1.20
2022-12-18T20:06:26.422Z,1.20
2022-12-18T20:08:57.637Z,1.21
2022-12-18T20:11:29.157Z,1.30
2022-12-18T20:13:56.453Z,1.13
2022-12-18T20:16:23.262Z,1.13
2022-12-18T20:18:50.736Z,1.24
2022-12-18T20:21:19.408Z,1.18
2022-12-18T20:23:46.077Z,0.97
2022-12-18T20:26:13.230Z,1.23
2022-12-18T20:28:40.650Z,1.16
2022-12-18T20:31:10.538Z,1.32
2022-12-18T20:33:41.350Z,1.29
2022-12-18T20:36:13.621Z,1.26
2022-12-18T20:38:41.682Z,1.15
2022-12-18T20:41:16.479Z,1.04
2022-12-18T20:43:43.924Z,0.90
2022-12-18T20:46:13.669Z,1.21
2022-12-18T20:48:41.037Z,1.33
2022-12-18T20:51:11.113Z,1.31
2022-12-18T20:53:38.822Z,1.25
2022-12-18T20:56:09.433Z,1.42
2022-12-18T20:58:36.618Z,1.38
2022-12-18T21:01:15.461Z,1.50
2022-12-18T21:03:44.322Z,1.50
2022-12-18T21:06:11.852Z,1.44
2022-12-18T21:08:38.958Z,1.30
2022-12-18T21:11:45.065Z,1.43
2022-12-18T21:14:16.862Z,1.16
2022-12-18T21:16:44.283Z,1.30
2022-12-18T21:19:13.105Z,1.47
2022-12-18T21:21:40.688Z,1.55
2022-12-18T21:24:08.207Z,1.39
2022-12-18T21:26:35.069Z,1.43
2022-12-18T21:29:05.723Z,1.51
2022-12-18T21:31:33.510Z,1.76
2022-12-18T21:34:02.350Z,1.58
2022-12-18T21:36:30.879Z,1.67
2022-12-18T21:38:58.415Z,1.57
2022-12-18T21:41:44.679Z,1.67
2022-12-18T21:44:15.397Z,1.72
2022-12-18T21:46:47.058Z,1.64
2022-12-18T21:49:18.325Z,1.72
2022-12-18T21:51:45.247Z,1.81
2022-12-18T21:54:12.284Z,1.84
2022-12-18T21:56:52.595Z,1.80
2022-12-18T21:59:40.423Z,1.69
2022-12-18T22:02:16.879Z,1.79
2022-12-18T22:04:45.286Z,1.74
2022-12-18T22:07:13.248Z,1.89
2022-12-18T22:09:40.396Z,1.89
2022-12-18T22:12:12.275Z,1.50
2022-12-18T22:14:39.082Z,1.95
2022-12-18T22:17:05.809Z,2.01
2022-12-18T22:19:38.141Z,1.69
2022-12-18T22:22:10.760Z,1.84
2022-12-18T22:24:37.672Z,1.88
2022-12-18T22:27:04.318Z,1.60
2022-12-18T22:29:50.092Z,1.81
2022-12-18T22:32:20.402Z,1.83
2022-12-18T22:35:05.220Z,1.99
2022-12-18T22:37:33.126Z,1.99
2022-12-18T22:39:59.828Z,1.97
2022-12-18T22:42:31.631Z,1.98
2022-12-18T22:44:58.599Z,1.70
2022-12-18T22:47:29.765Z,1.82
2022-12-18T22:49:58.201Z,1.87
2022-12-18T22:52:25.544Z,1.88
2022-12-18T22:54:53.234Z,1.76
2022-12-18T22:57:22.203Z,1.76
2022-12-18T22:59:52.384Z,1.72
2022-12-18T23:02:19.596Z,1.75
2022-12-18T23:04:47.921Z,1.66
2022-12-18T23:07:15.219Z,1.67
2022-12-18T23:09:42.513Z,1.66
2022-12-18T23:12:15.109Z,1.47
2022-12-18T23:14:42.288Z,1.68
2022-12-18T23:17:09.041Z,1.45
2022-12-18T23:19:36.418Z,1.51
2022-12-18T23:22:06.120Z,1.56
2022-12-18T23:24:36.797Z,1.42
2022-12-18T23:27:03.669Z,1.64
2022-12-18T23:29:36.230Z,1.39
2022-12-18T23:32:03.112Z,1.62
2022-12-18T23:34:29.740Z,1.63
2022-12-18T23:36:56.451Z,1.63
2022-12-18T23:39:29.867Z,1.41
2022-12-18T23:41:58.692Z,1.59
2022-12-18T23:44:25.914Z,1.58
2022-12-18T23:46:52.868Z,1.51
2022-12-18T23:49:19.871Z,1.41
2022-12-18T23:51:46.651Z,1.42
2022-12-18T23:54:13.385Z,1.58
2022-12-18T23:56:40.215Z,1.53
2022-12-18T23:59:07.176Z,1.65
